Time;durP1;ratioP1;P1;durP2;ratioP2;P2;SDS_P1;SDS_P2;PMS_P1;PMS_P2;Temp;Humidity;BMP_temperature;BMP_pressure;BME280_temperature;BME280_humidity;BME280_pressure;Samples;Min_cycle;Max_cycle;Signal;HPM_P1;HPM_P2
2022/08/01 00:02:13;;;;;;;6.70;2.95;;;18.50;99.90;;;;;;5073863;28;20517;-72
2022/08/01 00:04:38;;;;;;;7.55;4.65;;;18.50;99.90;;;;;;5073507;28;20219;-72
2022/08/01 00:07:04;;;;;;;5.80;4.28;;;18.50;99.90;;;;;;5063589;28;20044;-73
2022/08/01 00:09:30;;;;;;;8.45;4.88;;;18.50;99.90;;;;;;5077052;28;20609;-72
2022/08/01 00:11:55;;;;;;;8.25;4.82;;;18.50;99.90;;;;;;5076791;28;20058;-73
2022/08/01 00:14:21;;;;;;;5.88;4.80;;;18.50;99.90;;;;;;5077808;28;20094;-73
2022/08/01 00:16:47;;;;;;;9.50;5.35;;;18.50;99.90;;;;;;5075241;28;20601;-72
2022/08/01 00:19:12;;;;;;;7.20;4.65;;;18.50;99.90;;;;;;5077068;28;20083;-73
2022/08/01 00:21:38;;;;;;;8.20;4.82;;;18.50;99.90;;;;;;5075932;28;20044;-72
2022/08/01 00:24:04;;;;;;;6.13;4.80;;;18.40;99.90;;;;;;5059244;28;20167;-72
2022/08/01 00:26:30;;;;;;;6.22;4.18;;;18.50;99.90;;;;;;5077139;28;20119;-73
2022/08/01 00:28:55;;;;;;;5.82;4.53;;;18.40;99.90;;;;;;5076996;28;20152;-73
2022/08/01 00:31:21;;;;;;;12.32;5.10;;;18.40;99.90;;;;;;5076467;28;20052;-72
2022/08/01 00:33:47;;;;;;;10.05;6.07;;;18.40;99.90;;;;;;5092172;28;20270;-73
2022/08/01 00:36:13;;;;;;;7.38;4.95;;;18.40;99.90;;;;;;5076208;28;20048;-73
2022/08/01 00:38:38;;;;;;;4.75;3.65;;;18.40;99.90;;;;;;5076202;28;20847;-73
2022/08/01 00:41:04;;;;;;;6.75;3.75;;;18.40;99.90;;;;;;5076357;28;20048;-72
2022/08/01 00:43:30;;;;;;;5.43;3.83;;;18.40;99.90;;;;;;5079219;28;20046;-72
2022/08/01 00:45:55;;;;;;;6.50;4.47;;;18.40;99.90;;;;;;5075974;28;20055;-73
2022/08/01 00:48:21;;;;;;;6.93;4.53;;;18.40;99.90;;;;;;5076320;28;20052;-72
2022/08/01 00:50:47;;;;;;;8.27;4.00;;;18.40;99.90;;;;;;5081534;28;20043;-73
2022/08/01 00:53:13;;;;;;;10.52;4.82;;;18.40;99.90;;;;;;5076450;28;20590;-73
2022/08/01 00:55:39;;;;;;;5.63;3.22;;;18.30;99.90;;;;;;5076099;28;20035;-72
2022/08/01 00:58:05;;;;;;;6.22;3.72;;;18.30;99.90;;;;;;5078015;28;20880;-73
2022/08/01 01:00:31;;;;;;;3.97;2.72;;;18.40;99.90;;;;;;5075689;28;20514;-72
2022/08/01 01:02:57;;;;;;;4.15;2.95;;;18.30;99.90;;;;;;5075689;28;20044;-72
2022/08/01 01:05:23;;;;;;;5.60;2.83;;;18.30;99.90;;;;;;5076754;28;20048;-73
2022/08/01 01:08:00;;;;;;;3.13;2.10;;;18.30;99.90;;;;;;5075496;28;20044;-72
2022/08/01 01:10:36;;;;;;;4.80;2.58;;;18.30;99.90;;;;;;5074662;28;20560;-73
2022/08/01 01:13:11;;;;;;;2.88;2.45;;;18.30;99.90;;;;;;5075139;28;20540;-72
2022/08/01 01:15:51;;;;;;;4.45;2.55;;;18.30;99.90;;;;;;5076550;28;20214;-72
2022/08/01 01:18:24;;;;;;;5.00;2.60;;;18.30;99.90;;;;;;5076752;28;20036;-72
2022/08/01 01:21:15;;;;;;;3.72;2.67;;;18.30;99.90;;;;;;5074451;28;20059;-72
2022/08/01 01:23:58;;;;;;;4.93;2.67;;;18.30;99.90;;;;;;5075753;28;20321;-72
2022/08/01 01:26:39;;;;;;;4.32;2.35;;;18.30;99.90;;;;;;5076580;28;20150;-73
2022/08/01 01:29:45;;;;;;;3.25;2.35;;;18.30;99.90;;;;;;5077512;28;20243;-73
2022/08/01 01:32:19;;;;;;;6.35;2.92;;;18.30;99.90;;;;;;5072827;28;20080;-72
2022/08/01 01:34:49;;;;;;;4.45;2.88;;;18.30;99.90;;;;;;5081013;28;20048;-72
2022/08/01 01:37:21;;;;;;;3.20;2.58;;;18.30;99.90;;;;;;5079918;28;20044;-73
2022/08/01 01:39:50;;;;;;;4.63;3.20;;;18.30;99.90;;;;;;5081002;28;20154;-73
2022/08/01 01:42:17;;;;;;;4.70;2.35;;;18.30;99.90;;;;;;5078372;28;20052;-72
2022/08/01 01:44:45;;;;;;;5.68;3.47;;;18.30;99.90;;;;;;5069108;28;20393;-73
2022/08/01 01:47:14;;;;;;;6.05;2.38;;;18.20;99.90;;;;;;5078575;28;20044;-72
2022/08/01 01:49:43;;;;;;;3.20;2.60;;;18.30;99.90;;;;;;5077728;28;20054;-72
2022/08/01 01:52:12;;;;;;;5.53;2.90;;;18.30;99.90;;;;;;5078250;28;20403;-73
2022/08/01 01:54:44;;;;;;;3.25;2.53;;;18.20;99.90;;;;;;5079937;28;20052;-72
2022/08/01 01:57:13;;;;;;;5.27;2.90;;;18.20;99.90;;;;;;5080117;28;20499;-72
2022/08/01 01:59:40;;;;;;;4.45;2.65;;;18.10;99.90;;;;;;5079249;28;20150;-73
2022/08/01 02:02:08;;;;;;;3.38;2.13;;;18.10;99.90;;;;;;5080062;28;20085;-73
2022/08/01 02:04:42;;;;;;;3.53;2.58;;;18.10;99.90;;;;;;5079211;28;20067;-73
2022/08/01 02:07:12;;;;;;;3.58;2.20;;;18.00;99.90;;;;;;5079863;28;20044;-73
2022/08/01 02:09:41;;;;;;;5.90;2.05;;;18.00;99.90;;;;;;5077564;28;20048;-73
2022/08/01 02:12:11;;;;;;;3.00;1.63;;;18.00;99.90;;;;;;5078899;28;20215;-72
2022/08/01 02:14:39;;;;;;;4.47;1.90;;;17.90;99.90;;;;;;5076324;28;20048;-72
2022/08/01 02:17:05;;;;;;;5.18;2.30;;;17.90;99.90;;;;;;5079172;28;20098;-72
2022/08/01 02:19:33;;;;;;;3.47;2.55;;;17.90;99.90;;;;;;5079102;28;20101;-73
2022/08/01 02:22:32;;;;;;;3.58;2.00;;;17.80;99.90;;;;;;5067270;28;20060;-73
2022/08/01 02:25:08;;;;;;;2.78;2.10;;;17.80;99.90;;;;;;5074112;28;20075;-72
2022/08/01 02:27:41;;;;;;;4.07;1.95;;;17.80;99.90;;;;;;5078919;28;20078;-72
2022/08/01 02:30:10;;;;;;;4.50;1.75;;;17.80;99.90;;;;;;5070921;28;20094;-72
2022/08/01 02:32:44;;;;;;;4.88;2.15;;;17.80;99.90;;;;;;5077384;28;20524;-73
2022/08/01 02:35:19;;;;;;;2.67;1.90;;;17.90;99.90;;;;;;5077626;28;20126;-73
2022/08/01 02:37:46;;;;;;;6.28;2.35;;;17.90;99.90;;;;;;5076585;28;20057;-73
2022/08/01 02:40:14;;;;;;;2.85;1.50;;;17.90;99.90;;;;;;5072419;28;20052;-72
2022/08/01 02:42:44;;;;;;;4.30;1.75;;;17.80;99.90;;;;;;5075806;28;20064;-72
2022/08/01 02:45:12;;;;;;;2.08;1.80;;;17.90;99.90;;;;;;5080697;28;20509;-72
2022/08/01 02:47:39;;;;;;;3.10;1.60;;;17.90;99.90;;;;;;5078590;28;20162;-73
2022/08/01 02:50:08;;;;;;;4.85;2.40;;;17.90;99.90;;;;;;5076669;28;20471;-72
2022/08/01 02:52:35;;;;;;;4.55;1.75;;;17.90;99.90;;;;;;5078020;28;20054;-72
2022/08/01 02:55:02;;;;;;;4.45;1.83;;;17.90;99.90;;;;;;5076719;28;20056;-72
2022/08/01 02:57:29;;;;;;;6.63;1.65;;;17.90;99.90;;;;;;5078058;28;20051;-73
2022/08/01 02:59:58;;;;;;;6.20;2.20;;;17.80;99.90;;;;;;5075646;28;20056;-73
2022/08/01 03:02:25;;;;;;;4.00;1.83;;;17.80;99.90;;;;;;5076342;28;20066;-73
2022/08/01 03:04:53;;;;;;;2.35;1.77;;;17.80;99.90;;;;;;5075011;28;20040;-72
2022/08/01 03:07:19;;;;;;;4.97;1.83;;;17.80;99.90;;;;;;5078887;28;20086;-72
2022/08/01 03:09:47;;;;;;;5.13;2.20;;;17.70;99.90;;;;;;5081502;28;20050;-73
2022/08/01 03:12:17;;;;;;;9.80;2.45;;;17.70;99.90;;;;;;5075803;28;20044;-72
2022/08/01 03:14:44;;;;;;;4.82;2.20;;;17.70;99.90;;;;;;5077374;28;20048;-73
2022/08/01 03:17:11;;;;;;;5.82;2.53;;;17.70;99.90;;;;;;5078262;28;20052;-73
2022/08/01 03:19:39;;;;;;;7.35;2.75;;;17.60;99.90;;;;;;5076387;28;20040;-72
2022/08/01 03:22:10;;;;;;;5.47;2.40;;;17.60;99.90;;;;;;5076694;28;20105;-73
2022/08/01 03:24:38;;;;;;;3.13;2.80;;;17.60;99.90;;;;;;5075565;28;20047;-73
2022/08/01 03:27:05;;;;;;;6.22;3.15;;;17.50;99.90;;;;;;5077705;28;20052;-73
2022/08/01 03:29:32;;;;;;;4.40;2.60;;;17.50;99.90;;;;;;5035837;28;1148821;-73
2022/08/01 03:32:00;;;;;;;9.73;3.00;;;17.50;99.90;;;;;;5076648;28;20083;-72
2022/08/01 03:34:27;;;;;;;7.15;2.92;;;17.50;99.90;;;;;;5077649;28;20044;-72
2022/08/01 03:37:02;;;;;;;6.32;2.63;;;17.40;99.90;;;;;;5083766;28;20055;-72
2022/08/01 03:39:31;;;;;;;8.60;3.88;;;17.40;99.90;;;;;;5077565;28;20702;-73
2022/08/01 03:42:07;;;;;;;6.60;2.92;;;17.40;99.90;;;;;;5080145;28;20048;-72
2022/08/01 03:44:35;;;;;;;7.05;3.78;;;17.40;99.90;;;;;;5076615;28;20052;-73
2022/08/01 03:47:06;;;;;;;6.45;2.85;;;17.30;99.90;;;;;;5077298;28;20105;-73
2022/08/01 03:49:34;;;;;;;7.93;3.05;;;17.30;99.90;;;;;;5074860;28;20074;-73
2022/08/01 03:52:06;;;;;;;5.75;2.97;;;17.30;99.90;;;;;;5075670;28;20135;-73
2022/08/01 03:54:36;;;;;;;7.80;2.83;;;17.30;99.90;;;;;;5076240;28;20055;-73
2022/08/01 03:57:03;;;;;;;8.25;3.20;;;17.20;99.90;;;;;;5066015;28;20060;-73
2022/08/01 03:59:30;;;;;;;5.40;2.45;;;17.20;99.90;;;;;;5078297;28;20054;-72
2022/08/01 04:01:57;;;;;;;7.00;3.13;;;17.10;99.90;;;;;;5076241;28;20445;-73
2022/08/01 04:04:23;;;;;;;6.43;2.83;;;17.10;99.90;;;;;;5074453;28;20289;-73
2022/08/01 04:06:53;;;;;;;7.20;2.60;;;17.00;99.90;;;;;;5075642;28;20119;-73
2022/08/01 04:09:20;;;;;;;13.30;3.25;;;17.00;99.90;;;;;;5075100;28;20423;-72
2022/08/01 04:11:47;;;;;;;4.03;3.08;;;17.00;99.90;;;;;;5077418;28;20054;-73
2022/08/01 04:14:12;;;;;;;7.15;2.95;;;17.00;99.90;;;;;;5073794;28;20128;-73
2022/08/01 04:16:38;;;;;;;5.78;2.42;;;17.00;99.90;;;;;;5067476;28;20061;-72
2022/08/01 04:19:07;;;;;;;11.15;3.42;;;17.00;99.90;;;;;;5074372;28;20123;-73
2022/08/01 04:21:35;;;;;;;7.25;3.33;;;17.10;99.90;;;;;;5076961;28;20129;-73
2022/08/01 04:24:10;;;;;;;6.72;3.17;;;17.10;99.90;;;;;;5074671;28;20083;-73
2022/08/01 04:26:38;;;;;;;7.80;3.13;;;17.00;99.90;;;;;;5077549;28;20101;-73
2022/08/01 04:29:05;;;;;;;13.23;3.30;;;17.00;99.90;;;;;;5071495;28;20101;-72
2022/08/01 04:31:32;;;;;;;12.77;3.78;;;17.10;99.90;;;;;;5073344;28;20134;-73
2022/08/01 04:34:01;;;;;;;7.00;2.92;;;17.10;99.90;;;;;;5074465;28;20116;-73
2022/08/01 04:36:29;;;;;;;8.85;3.35;;;17.10;99.90;;;;;;5073040;28;20052;-73
2022/08/01 04:38:59;;;;;;;7.13;3.35;;;17.10;99.90;;;;;;5070609;28;20629;-73
2022/08/01 04:41:25;;;;;;;11.23;4.03;;;17.00;99.90;;;;;;5073903;28;20044;-73
2022/08/01 04:43:52;;;;;;;5.63;3.58;;;17.00;99.90;;;;;;5072658;28;20040;-73
2022/08/01 04:46:18;;;;;;;8.68;3.42;;;17.00;99.90;;;;;;5072725;28;20055;-73
2022/08/01 04:48:45;;;;;;;4.88;3.40;;;17.00;99.90;;;;;;5060864;28;20052;-73
2022/08/01 04:51:15;;;;;;;8.63;3.00;;;16.90;99.90;;;;;;5072362;28;20793;-72
2022/08/01 04:53:41;;;;;;;10.05;4.10;;;16.90;99.90;;;;;;5073041;28;20040;-71
2022/08/01 04:56:07;;;;;;;7.43;3.03;;;17.00;99.90;;;;;;5073512;28;20059;-71
2022/08/01 04:58:32;;;;;;;6.45;2.67;;;16.90;99.90;;;;;;5072518;28;20043;-71
2022/08/01 05:00:58;;;;;;;5.72;2.92;;;16.90;99.90;;;;;;5073122;28;20044;-71
2022/08/01 05:03:24;;;;;;;8.70;3.40;;;16.90;99.90;;;;;;5072362;28;20043;-72
2022/08/01 05:05:49;;;;;;;6.75;3.05;;;16.90;99.90;;;;;;5070977;28;20044;-72
2022/08/01 05:08:16;;;;;;;6.78;3.28;;;16.90;99.90;;;;;;5068962;28;20092;-72
2022/08/01 05:10:42;;;;;;;10.73;3.40;;;16.90;99.90;;;;;;5074903;28;20863;-73
2022/08/01 05:13:08;;;;;;;9.48;3.47;;;16.90;99.90;;;;;;5071734;28;20141;-73
2022/08/01 05:15:37;;;;;;;5.65;2.63;;;16.90;99.90;;;;;;5072095;28;20052;-73
2022/08/01 05:18:03;;;;;;;8.10;3.60;;;17.00;99.90;;;;;;5072652;28;20044;-73
2022/08/01 05:20:29;;;;;;;8.15;3.10;;;16.50;99.90;;;;;;5072425;28;20147;-73
2022/08/01 05:22:54;;;;;;;12.30;4.00;;;17.00;99.90;;;;;;5070970;28;20050;-72
2022/08/01 05:25:20;;;;;;;7.40;3.15;;;17.00;99.90;;;;;;5072587;28;20048;-72
2022/08/01 05:27:47;;;;;;;9.77;3.53;;;17.00;99.90;;;;;;5071814;28;20369;-72
2022/08/01 05:30:12;;;;;;;10.45;3.40;;;17.00;99.90;;;;;;5072378;28;20163;-73
2022/08/01 05:32:38;;;;;;;15.77;3.17;;;17.10;99.90;;;;;;5070670;28;20814;-72
2022/08/01 05:35:05;;;;;;;7.90;2.90;;;17.00;99.90;;;;;;5074668;28;20106;-72
2022/08/01 05:37:30;;;;;;;6.95;3.50;;;17.00;99.90;;;;;;5072035;28;20043;-72
2022/08/01 05:39:56;;;;;;;12.45;3.67;;;17.10;99.90;;;;;;5071806;28;20675;-73
2022/08/01 05:42:22;;;;;;;13.38;3.33;;;17.00;99.90;;;;;;5071290;28;20079;-73
2022/08/01 05:44:48;;;;;;;12.48;2.75;;;17.10;99.90;;;;;;5071078;28;20121;-73
2022/08/01 05:47:14;;;;;;;10.45;3.83;;;17.10;99.90;;;;;;5070873;28;20044;-73
2022/08/01 05:49:39;;;;;;;9.60;2.92;;;17.10;99.90;;;;;;5072255;28;20612;-73
2022/08/01 05:52:05;;;;;;;10.57;4.05;;;17.10;99.90;;;;;;5071264;28;20086;-73
2022/08/01 05:54:31;;;;;;;9.48;3.20;;;17.10;99.90;;;;;;5071661;28;20044;-72
2022/08/01 05:56:59;;;;;;;6.47;2.90;;;17.10;99.90;;;;;;5073319;28;20036;-74
2022/08/01 05:59:25;;;;;;;7.60;3.63;;;17.10;99.90;;;;;;5070664;28;20048;-74
2022/08/01 06:01:51;;;;;;;9.05;3.17;;;17.10;99.90;;;;;;5069662;28;20051;-74
2022/08/01 06:04:17;;;;;;;13.48;3.65;;;17.10;99.90;;;;;;5070336;28;20054;-74
2022/08/01 06:06:43;;;;;;;11.20;4.07;;;17.10;99.90;;;;;;5072378;28;20529;-73
2022/08/01 06:09:08;;;;;;;10.77;3.83;;;17.20;99.90;;;;;;5071192;28;20143;-73
2022/08/01 06:11:34;;;;;;;9.60;3.83;;;17.20;99.90;;;;;;5071472;28;20532;-73
2022/08/01 06:14:00;;;;;;;13.57;3.63;;;17.20;99.90;;;;;;5070342;28;20855;-73
2022/08/01 06:16:25;;;;;;;10.35;3.80;;;17.20;99.90;;;;;;5072842;28;20043;-73
2022/08/01 06:18:51;;;;;;;11.38;4.68;;;17.20;99.90;;;;;;5073723;28;20051;-73
2022/08/01 06:21:17;;;;;;;11.32;3.58;;;17.30;99.90;;;;;;5071259;28;20889;-74
2022/08/01 06:23:42;;;;;;;8.60;3.83;;;17.30;99.90;;;;;;5071307;28;20128;-74
2022/08/01 06:26:09;;;;;;;11.13;3.80;;;17.30;99.90;;;;;;5069434;28;20055;-75
2022/08/01 06:28:39;;;;;;;8.27;2.78;;;17.30;99.90;;;;;;5075283;28;20099;-74
2022/08/01 06:31:05;;;;;;;7.55;2.78;;;17.30;99.90;;;;;;5071675;28;20104;-73
2022/08/01 06:33:31;;;;;;;10.57;3.15;;;17.30;99.90;;;;;;5075181;27;20048;-73
2022/08/01 06:35:56;;;;;;;10.75;4.30;;;17.30;99.90;;;;;;5071823;28;20040;-74
2022/08/01 06:38:24;;;;;;;10.85;4.97;;;17.30;99.90;;;;;;5072049;28;20048;-74
2022/08/01 06:40:49;;;;;;;12.80;4.32;;;17.30;99.90;;;;;;5074568;28;20040;-73
2022/08/01 06:43:15;;;;;;;11.00;4.57;;;17.30;99.90;;;;;;5075974;28;20480;-73
2022/08/01 06:45:41;;;;;;;12.30;4.03;;;17.40;99.90;;;;;;5076749;28;20770;-74
2022/08/01 06:48:07;;;;;;;9.95;3.70;;;17.30;99.90;;;;;;5073066;28;20361;-74
2022/08/01 06:50:33;;;;;;;9.50;3.63;;;17.40;99.90;;;;;;5067982;28;20513;-74
2022/08/01 06:52:58;;;;;;;10.73;3.92;;;17.40;99.90;;;;;;5074922;28;20506;-74
2022/08/01 06:55:24;;;;;;;8.35;3.45;;;17.40;99.90;;;;;;5068176;28;20082;-73
2022/08/01 06:57:51;;;;;;;9.95;3.05;;;17.40;99.90;;;;;;5070605;28;20048;-73
2022/08/01 07:00:20;;;;;;;10.60;3.25;;;17.50;99.90;;;;;;5075062;28;20381;-73
2022/08/01 07:02:46;;;;;;;9.10;2.97;;;17.50;99.90;;;;;;5078873;28;20044;-73
2022/08/01 07:05:12;;;;;;;7.25;3.08;;;17.60;99.90;;;;;;5077312;28;20055;-73
2022/08/01 07:07:38;;;;;;;10.15;2.97;;;17.50;99.90;;;;;;5078760;28;20154;-73
2022/08/01 07:10:04;;;;;;;12.93;3.83;;;17.50;99.90;;;;;;5075714;28;20052;-73
2022/08/01 07:12:30;;;;;;;9.57;3.63;;;17.60;99.90;;;;;;5074297;28;20056;-72
2022/08/01 07:14:56;;;;;;;11.52;3.80;;;17.60;99.90;;;;;;5076770;28;20052;-73
2022/08/01 07:17:21;;;;;;;5.63;3.35;;;17.70;99.90;;;;;;5076841;28;20071;-73
2022/08/01 07:19:54;;;;;;;7.55;3.78;;;17.80;99.90;;;;;;5076226;28;20059;-73
2022/08/01 07:22:21;;;;;;;10.73;2.97;;;17.90;99.90;;;;;;5074670;28;20675;-73
2022/08/01 07:24:47;;;;;;;12.65;2.97;;;18.00;99.90;;;;;;5076791;28;20040;-73
2022/08/01 07:27:12;;;;;;;8.45;3.35;;;17.90;99.90;;;;;;5074772;28;20048;-74
2022/08/01 07:29:38;;;;;;;8.80;3.63;;;18.00;99.90;;;;;;5075965;28;20173;-73
2022/08/01 07:32:04;;;;;;;6.30;3.67;;;17.90;99.90;;;;;;5076389;28;20052;-73
2022/08/01 07:34:30;;;;;;;12.05;2.90;;;18.00;99.90;;;;;;5077329;28;20047;-73
2022/08/01 07:36:56;;;;;;;10.63;2.97;;;18.20;99.90;;;;;;5057924;28;20044;-74
2022/08/01 07:39:22;;;;;;;10.80;4.35;;;18.30;99.90;;;;;;5076472;28;20086;-73
2022/08/01 07:41:47;;;;;;;6.40;2.50;;;18.60;99.90;;;;;;5076940;28;20058;-73
2022/08/01 07:44:14;;;;;;;16.48;6.35;;;18.60;99.90;;;;;;5076803;28;20075;-73
2022/08/01 07:46:39;;;;;;;7.55;3.50;;;18.80;99.90;;;;;;5075881;28;20079;-74
2022/08/01 07:49:05;;;;;;;9.82;2.80;;;19.10;99.90;;;;;;5074813;28;20131;-73
2022/08/01 07:51:31;;;;;;;8.70;3.40;;;19.30;99.90;;;;;;5075437;28;20050;-72
2022/08/01 07:53:56;;;;;;;8.80;3.08;;;19.20;99.90;;;;;;5075963;28;20480;-73
2022/08/01 07:56:23;;;;;;;5.85;2.88;;;19.30;99.90;;;;;;5075325;28;20086;-73
2022/08/01 07:58:50;;;;;;;7.90;3.33;;;19.40;99.90;;;;;;5076846;28;20049;-73
2022/08/01 08:01:15;;;;;;;13.88;2.92;;;19.40;99.90;;;;;;5075648;28;20044;-74
2022/08/01 08:03:41;;;;;;;13.38;3.90;;;19.50;99.90;;;;;;5076572;28;20773;-73
2022/08/01 08:06:06;;;;;;;8.57;3.65;;;20.20;99.90;;;;;;5075618;28;20559;-73
2022/08/01 08:08:34;;;;;;;7.28;3.25;;;20.10;99.90;;;;;;5075941;28;20439;-74
2022/08/01 08:11:00;;;;;;;10.57;3.50;;;20.30;99.90;;;;;;5073267;28;20048;-73
2022/08/01 08:13:26;;;;;;;8.00;2.78;;;20.40;99.90;;;;;;5076783;28;20203;-74
2022/08/01 08:15:52;;;;;;;8.77;2.47;;;20.00;99.90;;;;;;5075260;28;20487;-74
2022/08/01 08:18:18;;;;;;;6.18;2.67;;;20.10;99.90;;;;;;5076347;28;20668;-74
2022/08/01 08:20:43;;;;;;;7.55;2.95;;;20.10;99.90;;;;;;5076225;28;20578;-74
2022/08/01 08:25:53;;;;;;;10.68;3.22;;;21.40;99.90;;;;;;5075782;28;20044;-74
2022/08/01 08:28:19;;;;;;;10.25;2.85;;;21.40;99.90;;;;;;5076884;28;20074;-74
2022/08/01 08:30:45;;;;;;;7.30;3.00;;;21.80;99.90;;;;;;5075560;28;20654;-74
2022/08/01 08:33:10;;;;;;;12.55;3.78;;;22.40;99.90;;;;;;5074465;28;20093;-72
2022/08/01 08:35:40;;;;;;;7.32;3.22;;;22.70;99.90;;;;;;5075580;28;20301;-69
2022/08/01 08:38:05;;;;;;;7.07;2.92;;;22.90;99.90;;;;;;5073581;28;20178;-72
2022/08/01 08:40:36;;;;;;;10.10;2.85;;;23.60;99.90;;;;;;5075808;28;20484;-74
2022/08/01 08:43:04;;;;;;;9.63;2.92;;;24.00;99.90;;;;;;5075007;28;20461;-72
2022/08/01 08:45:30;;;;;;;8.55;2.35;;;23.80;99.90;;;;;;5074315;28;20070;-69
2022/08/01 08:47:56;;;;;;;8.35;2.40;;;23.90;99.90;;;;;;5072999;28;20050;-70
2022/08/01 08:50:25;;;;;;;5.75;2.40;;;24.30;99.90;;;;;;5074477;28;20051;-68
2022/08/01 08:52:54;;;;;;;10.20;2.75;;;24.40;99.40;;;;;;5075531;28;20050;-70
2022/08/01 08:55:20;;;;;;;6.53;2.35;;;24.30;99.90;;;;;;5074728;28;20052;-69
2022/08/01 08:57:47;;;;;;;12.27;2.17;;;24.30;98.50;;;;;;5074349;28;20127;-70
2022/08/01 09:00:14;;;;;;;9.55;2.50;;;24.40;98.10;;;;;;5075590;28;20048;-68
2022/08/01 09:02:44;;;;;;;6.78;2.80;;;24.10;99.90;;;;;;5075078;28;20040;-73
2022/08/01 09:05:11;;;;;;;7.10;2.47;;;24.30;97.00;;;;;;5068496;28;20570;-74
2022/08/01 09:07:37;;;;;;;3.55;2.20;;;24.10;94.70;;;;;;5075139;28;20574;-75
2022/08/01 09:10:04;;;;;;;7.10;3.17;;;24.70;99.60;;;;;;5075934;28;20131;-75
2022/08/01 09:12:30;;;;;;;5.75;2.20;;;24.40;98.80;;;;;;5075170;28;20124;-76
2022/08/01 09:14:56;;;;;;;5.35;1.90;;;24.60;98.90;;;;;;5075711;28;20047;-76
2022/08/01 09:17:22;;;;;;;6.00;2.13;;;24.80;95.40;;;;;;5075446;28;20040;-76
2022/08/01 09:19:53;;;;;;;4.55;2.63;;;24.70;97.50;;;;;;5075800;28;20208;-75
2022/08/01 09:22:22;;;;;;;5.85;2.05;;;24.60;92.60;;;;;;5075276;28;20124;-76
2022/08/01 09:25:08;;;;;;;9.75;2.35;;;24.00;97.00;;;;;;5076255;28;20040;-75
2022/08/01 09:27:35;;;;;;;8.25;2.30;;;24.00;92.90;;;;;;5075040;28;20052;-75
2022/08/01 09:30:14;;;;;;;6.80;1.85;;;23.90;98.00;;;;;;5075395;28;20121;-75
2022/08/01 09:32:56;;;;;;;6.05;2.70;;;24.40;94.50;;;;;;5074941;28;20498;-75
2022/08/01 09:35:28;;;;;;;8.15;2.10;;;24.80;91.80;;;;;;5074411;28;20054;-75
2022/08/01 09:38:16;;;;;;;5.23;2.00;;;24.70;93.50;;;;;;5073881;28;20050;-75
2022/08/01 09:40:46;;;;;;;3.72;1.77;;;24.70;93.10;;;;;;5074668;28;21022;-76
2022/08/01 09:43:12;;;;;;;4.22;1.90;;;24.10;94.80;;;;;;5075103;28;20044;-77
2022/08/01 09:45:44;;;;;;;5.95;2.38;;;24.50;94.00;;;;;;5075442;28;20120;-75
2022/08/01 09:48:11;;;;;;;5.80;1.95;;;23.80;93.60;;;;;;5075829;28;20047;-75
2022/08/01 09:50:45;;;;;;;3.88;2.08;;;23.60;95.70;;;;;;5077756;28;20135;-75
2022/08/01 09:53:12;;;;;;;8.98;2.38;;;23.40;94.00;;;;;;5067523;28;20082;-75
2022/08/01 09:55:42;;;;;;;5.50;2.63;;;23.10;93.00;;;;;;5077869;28;20400;-75
2022/08/01 09:58:08;;;;;;;4.20;2.05;;;22.80;95.60;;;;;;5078639;28;20051;-75
2022/08/01 10:00:35;;;;;;;4.40;2.22;;;22.40;95.70;;;;;;5080043;28;20043;-80
2022/08/01 10:03:22;;;;;;;3.90;1.50;;;22.70;94.50;;;;;;5059232;28;20047;-79
2022/08/01 10:05:48;;;;;;;4.85;1.73;;;22.70;92.70;;;;;;5077409;28;20048;-81
2022/08/01 10:08:14;;;;;;;4.35;1.70;;;23.20;96.00;;;;;;5080787;28;20842;-78
2022/08/01 10:10:40;;;;;;;7.65;1.88;;;23.80;95.60;;;;;;5080628;28;20052;-79
2022/08/01 10:13:07;;;;;;;5.18;1.90;;;23.70;95.00;;;;;;5081424;28;20072;-78
2022/08/01 10:15:34;;;;;;;4.53;2.42;;;23.70;94.60;;;;;;5080494;28;20088;-79
2022/08/01 10:18:04;;;;;;;8.35;2.03;;;22.80;93.10;;;;;;5078608;28;20079;-78
2022/08/01 10:20:32;;;;;;;3.97;2.00;;;22.50;95.50;;;;;;5077316;28;20381;-79
2022/08/01 10:23:00;;;;;;;8.60;1.83;;;22.80;93.60;;;;;;4722195;28;10000538;-80
2022/08/01 10:25:28;;;;;;;6.55;1.70;;;23.20;93.30;;;;;;5075598;28;20233;-80
2022/08/01 10:27:56;;;;;;;3.67;1.60;;;22.90;94.30;;;;;;5072831;28;20074;-78
2022/08/01 10:30:22;;;;;;;3.17;1.52;;;23.10;95.20;;;;;;5071907;28;20134;-81
2022/08/01 10:32:49;;;;;;;4.90;1.85;;;22.50;94.40;;;;;;5074710;28;20036;-80
2022/08/01 10:35:17;;;;;;;4.70;1.40;;;22.30;95.40;;;;;;5075527;28;20044;-80
2022/08/01 10:37:45;;;;;;;3.28;1.55;;;22.50;96.20;;;;;;5074178;28;20052;-79
2022/08/01 10:40:14;;;;;;;5.00;1.52;;;23.10;95.10;;;;;;5075299;28;20044;-78
2022/08/01 10:42:44;;;;;;;4.45;1.60;;;23.50;93.50;;;;;;5074905;28;20143;-79
2022/08/01 10:45:13;;;;;;;5.25;1.15;;;23.50;92.70;;;;;;5073336;28;20062;-80
2022/08/01 10:47:53;;;;;;;3.35;1.45;;;24.00;94.40;;;;;;5072956;28;20056;-80
2022/08/01 10:50:34;;;;;;;6.03;2.08;;;24.20;91.40;;;;;;5068094;28;20043;-81
2022/08/01 10:53:24;;;;;;;3.95;1.38;;;23.40;91.70;;;;;;5070518;28;20055;-79
2022/08/01 10:56:03;;;;;;;5.10;1.50;;;22.80;92.00;;;;;;5075395;28;20155;-79
2022/08/01 10:58:41;;;;;;;6.22;1.77;;;22.80;92.40;;;;;;5074529;28;20074;-80
2022/08/01 11:01:18;;;;;;;4.00;1.85;;;22.80;93.40;;;;;;5073035;28;20048;-80
2022/08/01 11:04:02;;;;;;;4.70;1.67;;;22.60;94.00;;;;;;5074956;28;20077;-80
2022/08/01 11:06:34;;;;;;;4.57;1.80;;;22.50;92.40;;;;;;5074063;28;20051;-79
2022/08/01 11:09:24;;;;;;;9.80;2.08;;;22.60;93.20;;;;;;5075872;28;20113;-79
2022/08/01 11:12:00;;;;;;;3.88;1.73;;;22.50;91.20;;;;;;5071457;28;20256;-79
2022/08/01 11:14:26;;;;;;;7.63;1.90;;;22.40;93.20;;;;;;5073026;28;20087;-80
2022/08/01 11:16:52;;;;;;;5.03;1.65;;;22.20;93.30;;;;;;5073651;28;20119;-80
2022/08/01 11:19:17;;;;;;;3.38;1.80;;;22.10;93.40;;;;;;5074172;28;20044;-80
2022/08/01 11:21:52;;;;;;;5.97;1.70;;;22.00;93.20;;;;;;5072254;28;20044;-80
2022/08/01 11:24:51;;;;;;;3.83;1.48;;;22.20;94.30;;;;;;5072956;28;20039;-80
2022/08/01 11:27:29;;;;;;;5.03;2.28;;;21.80;92.50;;;;;;5073470;28;20056;-79
2022/08/01 11:30:09;;;;;;;3.60;1.45;;;21.60;92.80;;;;;;5077232;28;20088;-79
2022/08/01 11:32:54;;;;;;;3.97;1.38;;;21.60;94.20;;;;;;5074776;28;20073;-80
2022/08/01 11:35:26;;;;;;;4.15;1.30;;;21.70;94.20;;;;;;5077103;28;20052;-81
2022/08/01 11:37:56;;;;;;;3.22;1.60;;;21.80;94.00;;;;;;5078605;28;20806;-79
2022/08/01 11:40:27;;;;;;;6.03;1.60;;;21.60;93.30;;;;;;5076876;28;20051;-79
2022/08/01 11:43:11;;;;;;;7.28;2.13;;;21.70;93.80;;;;;;5059803;28;20048;-80
2022/08/01 11:45:51;;;;;;;4.45;1.45;;;21.90;92.20;;;;;;5087149;28;20059;-80
2022/08/01 11:48:21;;;;;;;5.80;1.80;;;21.90;93.40;;;;;;5076243;28;20146;-79
2022/08/01 11:50:49;;;;;;;2.83;1.92;;;21.60;92.20;;;;;;5077526;28;20839;-79
2022/08/01 11:53:16;;;;;;;8.95;1.77;;;21.50;93.00;;;;;;5067994;28;20052;-73
2022/08/01 11:56:00;;;;;;;2.75;1.55;;;21.80;93.40;;;;;;5071330;28;20051;-73
2022/08/01 11:58:26;;;;;;;2.17;1.40;;;21.70;92.80;;;;;;5070879;28;20077;-73
2022/08/01 12:00:57;;;;;;;4.32;1.60;;;21.50;92.40;;;;;;5071384;28;20047;-72
2022/08/01 12:03:31;;;;;;;3.88;1.65;;;21.40;92.60;;;;;;5074787;28;20044;-73
2022/08/01 12:05:58;;;;;;;5.88;1.70;;;21.30;92.40;;;;;;5073560;28;20052;-73
2022/08/01 12:08:29;;;;;;;5.70;1.63;;;21.20;93.50;;;;;;5073680;28;20090;-72
2022/08/01 12:10:55;;;;;;;2.65;1.35;;;21.40;93.00;;;;;;5074003;28;20093;-72
2022/08/01 12:13:21;;;;;;;7.53;3.05;;;21.10;91.90;;;;;;5069622;28;20594;-73
2022/08/01 12:15:50;;;;;;;3.83;1.50;;;21.30;93.30;;;;;;5069810;28;20117;-72
2022/08/01 12:18:16;;;;;;;3.40;1.73;;;21.30;92.70;;;;;;5074359;28;20491;-72
2022/08/01 12:20:44;;;;;;;2.78;1.50;;;21.40;93.00;;;;;;5073216;28;20036;-73
2022/08/01 12:23:12;;;;;;;3.15;1.63;;;21.40;92.90;;;;;;5073713;28;20079;-73
2022/08/01 12:25:39;;;;;;;4.60;1.80;;;21.30;93.00;;;;;;5086791;28;20050;-73
2022/08/01 12:28:07;;;;;;;4.22;1.67;;;21.30;92.40;;;;;;5071588;28;20056;-72
2022/08/01 12:30:35;;;;;;;3.70;1.65;;;21.10;90.70;;;;;;5073737;28;20052;-72
2022/08/01 12:33:05;;;;;;;2.83;1.65;;;21.10;92.10;;;;;;5072945;28;20159;-73
2022/08/01 12:35:31;;;;;;;5.97;2.17;;;21.20;92.10;;;;;;5074144;28;20052;-72
2022/08/01 12:37:58;;;;;;;2.08;1.50;;;21.20;92.10;;;;;;5072697;28;20647;-72
2022/08/01 12:40:29;;;;;;;6.32;2.03;;;21.10;91.70;;;;;;5071257;28;20063;-72
2022/08/01 12:43:01;;;;;;;3.47;1.67;;;21.00;91.40;;;;;;5073670;28;20473;-73
2022/08/01 12:45:42;;;;;;;4.88;1.42;;;21.10;92.40;;;;;;5073543;28;20213;-73
2022/08/01 12:48:16;;;;;;;3.53;1.30;;;21.20;91.20;;;;;;5074946;28;20860;-71
2022/08/01 12:50:47;;;;;;;2.45;1.40;;;21.40;91.80;;;;;;5072773;28;20050;-72
2022/08/01 12:53:14;;;;;;;4.22;1.50;;;21.60;91.30;;;;;;5070872;28;20048;-72
2022/08/01 12:55:47;;;;;;;4.40;1.88;;;21.90;91.80;;;;;;5074404;28;20711;-73
2022/08/01 12:58:14;;;;;;;4.45;1.55;;;22.10;90.90;;;;;;5070881;28;20048;-72